createdAt,value
2022-12-03T00:01:00.006Z,97872.69
2022-12-03T00:03:30.968Z,97872.41
2022-12-03T00:06:04.413Z,97875.03
2022-12-03T00:08:37.125Z,97880.28
2022-12-03T00:11:07.997Z,97872.03
2022-12-03T00:13:38.603Z,97882.03
2022-12-03T00:16:09.768Z,97880.59
2022-12-03T00:18:40.452Z,97885.06
2022-12-03T00:21:13.670Z,97893.03
2022-12-03T00:23:44.400Z,97884.59
2022-12-03T00:26:15.345Z,97893.16
2022-12-03T00:28:46.061Z,97899.63
2022-12-03T00:31:17.340Z,97898.53
2022-12-03T00:33:47.997Z,97895.78
2022-12-03T00:36:21.902Z,97897.19
2022-12-03T00:38:52.465Z,97900.19
2022-12-03T00:41:23.027Z,97908.25
2022-12-03T00:43:57.631Z,97898.78
2022-12-03T00:46:28.621Z,97902.53
2022-12-03T00:48:59.657Z,97890.31
2022-12-03T00:51:33.207Z,97894.78
2022-12-03T00:54:03.904Z,97902.28
2022-12-03T00:56:34.627Z,97905.72
2022-12-03T00:59:05.350Z,97911.44
2022-12-03T01:01:36.101Z,97913.41
2022-12-03T01:04:07.075Z,97912.66
2022-12-03T01:06:40.290Z,97909.28
2022-12-03T01:09:10.994Z,97914.72
2022-12-03T01:11:42.097Z,97915.75
2022-12-03T01:14:14.577Z,97909.09
2022-12-03T01:16:46.244Z,97913.41
2022-12-03T01:19:18.131Z,97922.03
2022-12-03T01:21:53.492Z,97914.34
2022-12-03T01:24:24.330Z,97918.66
2022-12-03T01:26:56.375Z,97908.53
2022-12-03T01:29:27.084Z,97923.69
2022-12-03T01:32:10.127Z,97912.88
2022-12-03T01:34:40.978Z,97922.19
2022-12-03T01:37:14.727Z,97934.09
2022-12-03T01:39:46.500Z,97923.25
2022-12-03T01:42:20.839Z,97930.66
2022-12-03T01:44:54.080Z,97922.78
2022-12-03T01:47:29.811Z,97912.66
2022-12-03T01:50:03.908Z,97942.44
2022-12-03T01:52:41.874Z,97929.63
2022-12-03T01:55:19.465Z,97930.53
2022-12-03T01:57:53.525Z,97940.38
2022-12-03T02:00:27.303Z,97938.69
2022-12-03T02:03:00.271Z,97946.63
2022-12-03T02:05:33.117Z,97943.16
2022-12-03T02:08:32.730Z,97950.28
2022-12-03T02:11:06.681Z,97944.09
2022-12-03T02:14:02.339Z,97938.31
2022-12-03T02:16:32.997Z,97933.81
2022-12-03T02:19:03.758Z,97936.63
2022-12-03T02:21:41.911Z,97933.16
2022-12-03T02:24:22.846Z,97935.88
2022-12-03T02:26:56.421Z,97941.13
2022-12-03T02:29:29.772Z,97935.41
2022-12-03T02:32:00.506Z,97941.69
2022-12-03T02:34:39.369Z,97932.22
2022-12-03T02:37:14.703Z,97937.56
2022-12-03T02:39:49.577Z,97936.44
2022-12-03T02:42:38.535Z,97937.91
2022-12-03T02:45:14.438Z,97925.28
2022-12-03T02:47:47.628Z,97931.94
2022-12-03T02:50:22.222Z,97929.72
2022-12-03T02:52:54.190Z,97935.78
2022-12-03T02:55:26.307Z,97927.34
2022-12-03T02:58:00.289Z,97900.19
2022-12-03T03:00:31.249Z,97927.44
2022-12-03T03:03:03.820Z,97919.56
2022-12-03T03:05:35.302Z,97936.16
2022-12-03T03:08:06.717Z,97934.56
2022-12-03T03:10:39.354Z,97928.56
2022-12-03T03:13:14.647Z,97932.69
2022-12-03T03:15:46.268Z,97917.41
2022-12-03T03:18:18.766Z,97936.81
2022-12-03T03:20:49.535Z,97942.91
2022-12-03T03:23:23.036Z,97940.53
2022-12-03T03:25:59.593Z,97938.13
2022-12-03T03:28:34.232Z,97940.81
2022-12-03T03:31:07.437Z,97945.38
2022-12-03T03:33:38.602Z,97943.72
2022-12-03T03:36:10.756Z,97944.81
2022-12-03T03:38:42.791Z,97947.53
2022-12-03T03:41:15.531Z,97957.25
2022-12-03T03:43:50.595Z,97961.56
2022-12-03T03:46:22.632Z,97956.06
2022-12-03T03:48:54.767Z,97960.38
2022-12-03T03:51:25.691Z,97956.16
2022-12-03T03:53:56.648Z,97957.91
2022-12-03T03:56:28.351Z,97959.03
2022-12-03T03:59:02.009Z,97969.50
2022-12-03T04:01:33.260Z,97976.63
2022-12-03T04:04:04.103Z,97970.13
2022-12-03T04:06:37.097Z,97984.66
2022-12-03T04:09:07.781Z,97987.34
2022-12-03T04:11:52.532Z,97984.09
2022-12-03T04:14:26.074Z,97987.44
2022-12-03T04:16:57.007Z,97982.19
2022-12-03T04:19:27.748Z,97978.84
2022-12-03T04:22:10.682Z,97977.91
2022-12-03T04:24:41.462Z,97976.97
2022-12-03T04:27:24.506Z,97976.31
2022-12-03T04:29:57.811Z,97968.53
2022-12-03T04:32:41.041Z,97975.28
2022-12-03T04:35:25.571Z,97977.50
2022-12-03T04:37:56.748Z,97985.75
2022-12-03T04:40:39.831Z,97981.88
2022-12-03T04:43:10.776Z,97983.53
2022-12-03T04:45:44.675Z,97970.41
2022-12-03T04:48:15.558Z,97982.03
2022-12-03T04:50:46.492Z,97986.53
2022-12-03T04:53:17.278Z,97990.47
2022-12-03T04:55:48.222Z,97981.50
2022-12-03T04:58:19.166Z,97983.38
2022-12-03T05:00:52.673Z,97981.69
2022-12-03T05:03:23.596Z,97970.03
2022-12-03T05:05:54.207Z,97982.03
2022-12-03T05:08:24.794Z,97974.34
2022-12-03T05:10:55.959Z,97971.72
2022-12-03T05:13:26.796Z,97984.66
2022-12-03T05:16:01.033Z,97989.63
2022-12-03T05:18:32.366Z,97972.75
2022-12-03T05:21:03.175Z,97986.53
2022-12-03T05:23:34.296Z,97987.44
2022-12-03T05:26:05.261Z,97985.75
2022-12-03T05:28:37.800Z,97999.06
2022-12-03T05:31:12.083Z,97984.25
2022-12-03T05:33:44.594Z,97992.19
2022-12-03T05:36:16.056Z,97988.84
2022-12-03T05:38:47.081Z,97987.81
2022-12-03T05:41:30.120Z,97999.31
2022-12-03T05:44:00.638Z,98008.84
2022-12-03T05:46:34.565Z,98014.16
2022-12-03T05:49:05.384Z,97997.56
2022-12-03T05:51:36.149Z,98015.34
2022-12-03T05:54:06.862Z,98019.47
2022-12-03T05:56:37.719Z,98020.63
2022-12-03T05:59:08.636Z,98032.06
2022-12-03T06:01:41.993Z,98008.88
2022-12-03T06:04:12.864Z,98037.03
2022-12-03T06:06:43.636Z,98036.47
2022-12-03T06:09:14.550Z,98020.25
2022-12-03T06:11:45.069Z,97997.66
2022-12-03T06:14:15.847Z,98004.13
2022-12-03T06:16:49.270Z,98007.19
2022-12-03T06:19:20.353Z,98008.81
2022-12-03T06:21:51.206Z,98008.81
2022-12-03T06:24:21.961Z,98014.97
2022-12-03T06:26:52.720Z,98006.25
2022-12-03T06:29:23.635Z,98006.38
2022-12-03T06:31:56.882Z,98004.00
2022-12-03T06:34:27.546Z,98010.75
2022-12-03T06:36:58.361Z,98017.75
2022-12-03T06:39:29.107Z,98021.25
2022-12-03T06:41:59.655Z,98025.53
2022-12-03T06:44:30.341Z,98020.38
2022-12-03T06:47:03.905Z,98020.13
2022-12-03T06:49:34.943Z,98009.09
2022-12-03T06:52:05.971Z,98013.13
2022-12-03T06:54:37.874Z,98017.34
2022-12-03T06:57:08.675Z,98004.66
2022-12-03T06:59:39.522Z,98009.38
2022-12-03T07:02:13.103Z,97989.72
2022-12-03T07:04:52.533Z,98017.38
2022-12-03T07:07:23.080Z,98022.53
2022-12-03T07:09:53.825Z,98020.47
2022-12-03T07:12:24.455Z,98017.78
2022-12-03T07:14:55.627Z,98038.00
2022-12-03T07:17:30.590Z,98031.28
2022-12-03T07:20:01.384Z,98037.56
2022-12-03T07:22:33.679Z,98031.03
2022-12-03T07:25:04.597Z,98036.94
2022-12-03T07:27:35.592Z,98032.91
2022-12-03T07:30:07.418Z,98031.41
2022-12-03T07:32:41.076Z,98034.28
2022-12-03T07:35:12.957Z,98035.41
2022-12-03T07:37:43.619Z,98037.47
2022-12-03T07:40:15.812Z,98034.34
2022-12-03T07:42:46.543Z,98024.47
2022-12-03T07:45:17.217Z,98028.22
2022-12-03T07:47:50.985Z,98031.28
2022-12-03T07:50:21.948Z,98029.41
2022-12-03T07:52:52.990Z,98027.13
2022-12-03T07:55:25.431Z,98021.69
2022-12-03T07:57:56.165Z,98020.31
2022-12-03T08:00:27.313Z,98023.50
2022-12-03T08:03:00.685Z,98024.88
2022-12-03T08:05:31.622Z,98022.78
2022-12-03T08:08:02.250Z,98021.53
2022-12-03T08:10:33.615Z,98019.44
2022-12-03T08:13:06.156Z,98012.41
2022-12-03T08:15:39.488Z,98021.69
2022-12-03T08:18:19.031Z,98028.44
2022-12-03T08:20:51.472Z,98023.91
2022-12-03T08:23:24.556Z,98018.84
2022-12-03T08:26:02.237Z,98032.31
2022-12-03T08:28:32.823Z,98030.53
2022-12-03T08:31:05.785Z,98030.88
2022-12-03T08:33:40.331Z,98022.66
2022-12-03T08:36:17.580Z,98021.84
2022-12-03T08:38:52.379Z,98032.66
2022-12-03T08:41:35.996Z,98032.16
2022-12-03T08:44:19.876Z,98030.25
2022-12-03T08:46:53.385Z,98032.78
2022-12-03T08:49:26.571Z,98011.50
2022-12-03T08:52:00.520Z,98031.63
2022-12-03T08:54:31.492Z,98008.34
2022-12-03T08:57:05.129Z,98028.13
2022-12-03T08:59:35.818Z,98034.88
2022-12-03T09:02:20.085Z,98033.00
2022-12-03T09:04:56.137Z,98037.19
2022-12-03T09:07:27.413Z,98034.34
2022-12-03T09:09:58.021Z,98007.31
2022-12-03T09:12:28.632Z,98032.34
2022-12-03T09:14:59.250Z,98023.50
2022-12-03T09:17:29.912Z,98027.00
2022-12-03T09:20:03.500Z,98019.22
2022-12-03T09:22:34.764Z,98024.56
2022-12-03T09:25:05.367Z,98021.84
2022-12-03T09:27:36.114Z,97995.09
2022-12-03T09:30:07.565Z,98023.00
2022-12-03T09:32:38.290Z,98016.34
2022-12-03T09:35:12.066Z,98018.69
2022-12-03T09:37:42.682Z,98012.16
2022-12-03T09:40:15.004Z,98011.09
2022-12-03T09:42:45.749Z,98016.78
2022-12-03T09:45:17.908Z,98010.88
2022-12-03T09:47:51.036Z,98017.41
2022-12-03T09:50:27.359Z,98019.94
2022-12-03T09:53:01.778Z,98013.94
2022-12-03T09:55:33.252Z,98013.94
2022-12-03T09:58:04.234Z,98009.84
2022-12-03T10:00:35.041Z,98004.56
2022-12-03T10:03:09.363Z,98002.91
2022-12-03T10:05:47.964Z,98003.72
2022-12-03T10:08:22.941Z,98006.25
2022-12-03T10:10:56.910Z,98001.75
2022-12-03T10:13:31.163Z,97987.41
2022-12-03T10:16:04.038Z,98000.53
2022-12-03T10:18:41.461Z,97997.81
2022-12-03T10:21:23.213Z,98000.13
2022-12-03T10:24:20.984Z,97995.50
2022-12-03T10:26:52.966Z,97991.72
2022-12-03T10:29:29.905Z,97994.16
2022-12-03T10:32:05.668Z,97985.78
2022-12-03T10:34:39.170Z,97996.84
2022-12-03T10:37:18.300Z,97995.16
2022-12-03T10:40:00.380Z,97998.34
2022-12-03T10:42:33.210Z,97997.09
2022-12-03T10:45:19.941Z,97997.06
2022-12-03T10:48:07.617Z,98001.00
2022-12-03T10:50:39.333Z,98003.78
2022-12-03T10:53:13.512Z,97989.91
2022-12-03T10:55:46.342Z,97987.91
2022-12-03T10:58:24.023Z,97984.13
2022-12-03T11:00:58.666Z,97991.19
2022-12-03T11:03:31.671Z,97989.63
2022-12-03T11:06:04.533Z,97990.66
2022-12-03T11:09:00.341Z,97990.22
2022-12-03T11:11:34.449Z,97985.69
2022-12-03T11:14:06.725Z,97988.69
2022-12-03T11:17:10.126Z,97990.34
2022-12-03T11:19:52.387Z,98001.50
2022-12-03T11:22:44.232Z,97993.97
2022-12-03T11:25:50.799Z,97999.72
2022-12-03T11:28:56.896Z,97986.56
2022-12-03T11:31:42.257Z,97996.84
2022-12-03T11:34:51.693Z,97999.56
2022-12-03T11:37:30.085Z,97997.25
2022-12-03T11:40:05.709Z,97994.38
2022-12-03T11:42:43.182Z,98013.16
2022-12-03T11:45:31.504Z,98011.25
2022-12-03T11:48:20.048Z,98004.59
2022-12-03T11:50:54.975Z,98002.88
2022-12-03T11:53:27.900Z,98006.44
2022-12-03T11:56:09.442Z,98011.59
2022-12-03T11:58:42.904Z,98011.06
2022-12-03T12:01:17.901Z,98015.22
2022-12-03T12:03:50.083Z,98020.53
2022-12-03T12:06:22.606Z,98006.91
2022-12-03T12:09:04.186Z,98006.91
2022-12-03T12:11:47.777Z,98013.28
2022-12-03T12:14:29.174Z,98000.75
2022-12-03T12:17:04.094Z,98012.09
2022-12-03T12:19:37.740Z,98015.00
2022-12-03T12:22:21.080Z,98021.22
2022-12-03T12:24:54.378Z,98007.00
2022-12-03T12:27:32.652Z,98013.19
2022-12-03T12:30:05.342Z,98015.56
2022-12-03T12:32:47.446Z,98008.88
2022-12-03T12:35:21.364Z,98005.38
2022-12-03T12:37:59.484Z,98010.84
2022-12-03T12:40:33.726Z,98001.53
2022-12-03T12:43:14.240Z,98008.72
2022-12-03T12:45:47.318Z,98009.97
2022-12-03T12:48:26.266Z,98003.38
2022-12-03T12:51:09.733Z,98005.50
2022-12-03T12:53:43.035Z,98003.38
2022-12-03T12:56:26.114Z,98011.59
2022-12-03T12:58:57.390Z,98004.34
2022-12-03T13:01:30.556Z,98015.28
2022-12-03T13:04:03.851Z,98006.25
2022-12-03T13:06:35.218Z,98004.38
2022-12-03T13:09:06.153Z,98010.16
2022-12-03T13:11:42.560Z,98003.94
2022-12-03T13:14:20.150Z,98012.69
2022-12-03T13:16:52.182Z,98008.16
2022-12-03T13:19:30.298Z,97993.84
2022-12-03T13:22:03.926Z,98014.16
2022-12-03T13:24:37.160Z,98012.34
2022-12-03T13:27:25.934Z,98014.06
2022-12-03T13:29:59.135Z,98019.09
2022-12-03T13:32:33.960Z,97998.06
2022-12-03T13:35:09.728Z,98006.69
2022-12-03T13:37:40.655Z,97986.69
2022-12-03T13:40:23.346Z,98016.06
2022-12-03T13:42:52.989Z,98016.88
2022-12-03T13:45:34.182Z,98024.56
2022-12-03T13:48:07.343Z,98015.09
2022-12-03T13:50:44.746Z,98009.94
2022-12-03T13:53:23.560Z,98017.63
2022-12-03T13:55:57.556Z,98015.91
2022-12-03T13:58:28.790Z,98021.84
2022-12-03T14:00:59.472Z,98010.56
2022-12-03T14:03:30.146Z,98018.03
2022-12-03T14:06:03.430Z,98019.72
2022-12-03T14:08:34.214Z,98012.13
2022-12-03T14:11:05.816Z,98028.34
2022-12-03T14:13:36.984Z,98015.50
2022-12-03T14:16:08.463Z,98025.19
2022-12-03T14:18:39.491Z,98019.09
2022-12-03T14:21:12.703Z,98029.84
2022-12-03T14:23:43.290Z,98028.97
2022-12-03T14:26:14.119Z,98034.47
2022-12-03T14:28:44.741Z,98027.50
2022-12-03T14:31:15.999Z,98029.31
2022-12-03T14:33:46.961Z,98025.94
2022-12-03T14:36:20.397Z,98021.00
2022-12-03T14:38:50.965Z,98023.28
2022-12-03T14:41:33.885Z,98033.72
2022-12-03T14:44:04.722Z,98031.84
2022-12-03T14:46:36.907Z,98032.56
2022-12-03T14:49:07.935Z,98035.09
2022-12-03T14:51:41.335Z,98023.00
2022-12-03T14:54:12.254Z,98022.13
2022-12-03T14:56:43.120Z,98028.97
2022-12-03T14:59:14.050Z,98028.16
2022-12-03T15:01:44.891Z,98030.88
2022-12-03T15:04:15.949Z,98034.47
2022-12-03T15:06:49.411Z,98036.34
2022-12-03T15:09:20.635Z,98032.03
2022-12-03T15:11:51.656Z,98039.09
2022-12-03T15:14:22.241Z,98034.69
2022-12-03T15:16:52.990Z,98032.75
2022-12-03T15:19:23.658Z,98019.31
2022-12-03T15:21:56.884Z,98030.88
2022-12-03T15:24:27.565Z,98033.53
2022-12-03T15:26:58.146Z,98035.19
2022-12-03T15:29:29.024Z,98034.69
2022-12-03T15:32:01.325Z,98034.69
2022-12-03T15:34:32.028Z,98038.03
2022-12-03T15:37:05.412Z,98047.72
2022-12-03T15:39:36.591Z,98037.50
2022-12-03T15:42:07.453Z,98055.63
2022-12-03T15:44:38.070Z,98033.19
2022-12-03T15:47:08.841Z,98046.78
2022-12-03T15:49:39.598Z,98053.63
2022-12-03T15:52:12.981Z,98031.72
2022-12-03T15:54:43.810Z,98047.63
2022-12-03T15:57:14.818Z,98054.47
2022-12-03T15:59:46.240Z,98056.44
2022-12-03T16:02:19.017Z,98054.03
2022-12-03T16:04:49.820Z,98058.56
2022-12-03T16:07:23.314Z,98055.28
2022-12-03T16:09:54.065Z,98059.72
2022-12-03T16:12:25.055Z,98064.75
2022-12-03T16:14:55.681Z,98060.56
2022-12-03T16:17:26.487Z,98057.81
2022-12-03T16:19:57.407Z,98057.81
2022-12-03T16:22:30.924Z,98063.63
2022-12-03T16:25:01.572Z,98068.78
2022-12-03T16:27:34.010Z,98074.03
2022-12-03T16:30:05.144Z,98071.50
2022-12-03T16:32:36.099Z,98076.78
2022-12-03T16:35:07.786Z,98068.56
2022-12-03T16:37:41.393Z,98077.91
2022-12-03T16:40:13.264Z,98078.34
2022-12-03T16:42:44.087Z,98082.56
2022-12-03T16:45:26.897Z,98086.00
2022-12-03T16:47:58.249Z,98080.84
2022-12-03T16:50:30.123Z,98088.44
2022-12-03T16:53:03.873Z,98069.59
2022-12-03T16:55:34.852Z,98073.63
2022-12-03T16:58:05.542Z,98083.91
2022-12-03T17:00:36.539Z,98096.25
2022-12-03T17:03:07.400Z,98092.75
2022-12-03T17:05:38.887Z,98093.91
2022-12-03T17:08:12.343Z,98096.44
2022-12-03T17:10:43.188Z,98094.66
2022-12-03T17:13:14.148Z,98088.75
2022-12-03T17:15:45.089Z,98102.31
2022-12-03T17:18:15.852Z,98101.50
2022-12-03T17:20:46.489Z,98099.50
2022-12-03T17:23:20.029Z,98103.81
2022-12-03T17:25:50.534Z,98112.47
2022-12-03T17:28:21.171Z,98111.69
2022-12-03T17:30:51.950Z,98117.91
2022-12-03T17:33:23.020Z,98118.97
2022-12-03T17:35:53.678Z,98117.38
2022-12-03T17:38:26.955Z,98115.72
2022-12-03T17:40:57.632Z,98109.16
2022-12-03T17:43:28.492Z,98117.47
2022-12-03T17:46:00.326Z,98120.97
2022-12-03T17:48:31.534Z,98116.66
2022-12-03T17:51:17.993Z,98114.84
2022-12-03T17:53:51.342Z,98114.84
2022-12-03T17:56:21.954Z,98109.59
2022-12-03T17:58:52.596Z,98093.91
2022-12-03T18:01:23.260Z,98117.69
2022-12-03T18:03:53.962Z,98121.91
2022-12-03T18:06:26.594Z,98113.69
2022-12-03T18:08:59.802Z,98128.34
2022-12-03T18:11:30.546Z,98127.47
2022-12-03T18:14:01.763Z,98124.94
2022-12-03T18:16:32.979Z,98096.09
2022-12-03T18:19:06.432Z,98129.16
2022-12-03T18:21:38.145Z,98123.47
2022-12-03T18:24:12.298Z,98127.66
2022-12-03T18:26:43.581Z,98131.25
2022-12-03T18:29:14.259Z,98135.28
2022-12-03T18:31:45.008Z,98130.31
2022-12-03T18:34:15.986Z,98122.50
2022-12-03T18:36:46.799Z,98130.31
2022-12-03T18:39:27.210Z,98125.13
2022-12-03T18:41:57.990Z,98094.16
2022-12-03T18:44:29.237Z,98130.97
2022-12-03T18:47:00.341Z,98132.66
2022-12-03T18:49:31.104Z,98127.38
2022-12-03T18:52:01.839Z,98135.19
2022-12-03T18:54:35.183Z,98117.38
2022-12-03T18:57:05.840Z,98142.22
2022-12-03T18:59:36.392Z,98132.75
2022-12-03T19:02:07.999Z,98140.72
2022-12-03T19:04:38.931Z,98143.47
2022-12-03T19:07:09.854Z,98139.06
2022-12-03T19:09:43.185Z,98139.06
2022-12-03T19:12:14.817Z,98137.28
2022-12-03T19:14:45.621Z,98135.88
2022-12-03T19:17:16.278Z,98138.84
2022-12-03T19:19:46.992Z,98135.47
2022-12-03T19:22:17.807Z,98135.28
2022-12-03T19:24:51.151Z,98144.94
2022-12-03T19:27:22.417Z,98138.94
2022-12-03T19:29:53.265Z,98136.50
2022-12-03T19:32:24.229Z,98146.19
2022-12-03T19:34:55.012Z,98143.69
2022-12-03T19:37:25.707Z,98146.31
2022-12-03T19:39:59.043Z,98142.81
2022-12-03T19:42:31.435Z,98141.88
2022-12-03T19:45:02.114Z,98134.84
2022-12-03T19:47:33.719Z,98133.88
2022-12-03T19:50:04.404Z,98133.78
2022-12-03T19:52:38.271Z,98144.31
2022-12-03T19:55:13.527Z,98144.31
2022-12-03T19:57:44.229Z,98114.06
2022-12-03T20:00:16.421Z,98140.91
2022-12-03T20:02:47.316Z,98135.13
2022-12-03T20:05:18.066Z,98141.97
2022-12-03T20:07:48.811Z,98141.16
2022-12-03T20:10:22.190Z,98150.81
2022-12-03T20:12:52.829Z,98149.75
2022-12-03T20:15:23.543Z,98149.75
2022-12-03T20:17:55.524Z,98154.94
2022-12-03T20:20:26.473Z,98154.94
2022-12-03T20:22:57.161Z,98157.38
2022-12-03T20:25:30.587Z,98168.72
2022-12-03T20:28:01.300Z,98157.56
2022-12-03T20:30:31.977Z,98160.72
2022-12-03T20:33:02.557Z,98166.84
2022-12-03T20:35:33.680Z,98165.88
2022-12-03T20:38:04.583Z,98164.94
2022-12-03T20:40:39.569Z,98161.47
2022-12-03T20:43:10.431Z,98143.88
2022-12-03T20:45:41.248Z,98170.41
2022-12-03T20:48:12.522Z,98171.25
2022-12-03T20:50:43.588Z,98175.78
2022-12-03T20:53:24.709Z,98177.56
2022-12-03T20:56:01.798Z,98163.34
2022-12-03T20:58:33.300Z,98140.78
2022-12-03T21:01:15.570Z,98170.28
2022-12-03T21:03:46.613Z,98175.34
2022-12-03T21:06:18.345Z,98162.28
2022-12-03T21:08:49.560Z,98156.59
2022-12-03T21:11:24.766Z,98167.44
2022-12-03T21:13:56.866Z,98163.00
2022-12-03T21:16:59.226Z,98148.88
2022-12-03T21:19:22.178Z,98168.41
2022-12-03T21:21:52.949Z,98165.09
2022-12-03T21:24:23.785Z,98172.91
2022-12-03T21:26:57.352Z,98177.13
2022-12-03T21:29:28.354Z,98177.13
2022-12-03T21:31:58.966Z,98166.06
2022-12-03T21:34:35.862Z,98170.09
2022-12-03T21:37:07.738Z,98174.38
2022-12-03T21:39:38.889Z,98163.97
2022-12-03T21:42:19.324Z,98170.72
2022-12-03T21:45:03.088Z,98165.56
2022-12-03T21:47:37.170Z,98171.56
2022-12-03T21:50:11.309Z,98169.13
2022-12-03T21:52:41.851Z,98161.44
2022-12-03T21:55:13.073Z,98157.38
2022-12-03T21:57:46.290Z,98156.66
2022-12-03T22:00:18.188Z,98160.06
2022-12-03T22:02:48.959Z,98150.94
2022-12-03T22:05:20.311Z,98153.59
2022-12-03T22:07:51.250Z,98151.72
2022-12-03T22:10:22.130Z,98159.69
2022-12-03T22:12:55.401Z,98154.19
2022-12-03T22:15:26.035Z,98141.28
2022-12-03T22:17:56.717Z,98152.31
2022-12-03T22:20:27.316Z,98141.25
2022-12-03T22:22:57.945Z,98159.22
2022-12-03T22:25:28.611Z,98154.16
2022-12-03T22:28:01.858Z,98153.81
2022-12-03T22:30:32.554Z,98148.63
2022-12-03T22:33:03.165Z,98150.75
2022-12-03T22:35:33.809Z,98149.03
2022-12-03T22:38:04.683Z,98146.38
2022-12-03T22:40:35.337Z,98152.97
2022-12-03T22:43:08.802Z,98142.31
2022-12-03T22:45:39.496Z,98150.00
2022-12-03T22:48:10.329Z,98151.03
2022-12-03T22:50:45.936Z,98151.09
2022-12-03T22:53:17.445Z,98149.47
2022-12-03T22:55:48.152Z,98158.31
2022-12-03T22:58:21.366Z,98151.31
2022-12-03T23:00:51.926Z,98149.34
2022-12-03T23:03:23.007Z,98148.16
2022-12-03T23:05:53.799Z,98156.06
2022-12-03T23:08:25.095Z,98153.19
2022-12-03T23:10:56.409Z,98158.56
2022-12-03T23:13:29.661Z,98139.34
2022-12-03T23:16:00.425Z,98145.84
2022-12-03T23:18:31.305Z,98140.75
2022-12-03T23:21:02.404Z,98140.91
2022-12-03T23:23:33.070Z,98138.00
2022-12-03T23:26:04.788Z,98149.19
2022-12-03T23:28:41.233Z,98141.13
2022-12-03T23:31:19.891Z,98143.34
2022-12-03T23:33:50.939Z,98151.47
2022-12-03T23:36:23.311Z,98135.13
2022-12-03T23:38:54.207Z,98148.38
2022-12-03T23:41:26.903Z,98139.59
2022-12-03T23:44:00.853Z,98145.28
2022-12-03T23:46:32.083Z,98127.53
2022-12-03T23:49:03.145Z,98155.84
2022-12-03T23:51:33.916Z,98141.63
2022-12-03T23:54:04.877Z,98155.22
2022-12-03T23:56:35.602Z,98150.34
2022-12-03T23:59:09.035Z,98157.47
